Terminal Aerodrome Forecast
Issued by NWS

Home | Current Version | Previous Version | Text Only | Print | Product List | Glossary On
Versions: 1 2 3 4 5 6 7 8 9 10 11 12 13 14 15 16 17 18 19 20 21 22 23 24 25
000
FTUS43 KGRR 221754
TAFAZO
TAF
KAZO 221754Z 2218/2318 18010KT P6SM OVC015
     FM222200 17006KT P6SM VCSH OVC012
     FM230200 17007KT P6SM VCSH OVC020
     FM230700 21008KT 5SM -DZ BR OVC010
     FM231200 25009KT 4SM -SN BR OVC008
     FM231500 27012G22KT 3SM -SN BR OVC008=

USA.gov is the U.S. government's official web portal to all federal, state and local government web resources and services.